Time;durP1;ratioP1;P1;durP2;ratioP2;P2;SDS_P1;SDS_P2;PMS_P1;PMS_P2;Temp;Humidity;BMP_temperature;BMP_pressure;BME280_temperature;BME280_humidity;BME280_pressure;Samples;Min_cycle;Max_cycle;Signal;HPM_P1;HPM_P2
2024/04/18 00:00:31;;;;;;;4.80;2.70;;;;;;;6.07;100.00;101391.00;5653871;26;20013;-78
2024/04/18 00:03:04;;;;;;;5.18;2.85;;;;;;;6.12;100.00;101384.69;5690374;26;20003;-76
2024/04/18 00:05:36;;;;;;;3.55;2.70;;;;;;;6.05;100.00;101379.81;5689435;26;20356;-75
2024/04/18 00:08:08;;;;;;;3.63;2.85;;;;;;;6.14;100.00;101390.63;5685811;26;20078;-75
2024/04/18 00:10:42;;;;;;;3.75;2.60;;;;;;;6.04;100.00;101382.53;5687789;26;20015;-74
2024/04/18 00:13:14;;;;;;;5.60;3.03;;;;;;;5.96;100.00;101371.72;5693048;26;20026;-76
2024/04/18 00:15:46;;;;;;;4.47;3.13;;;;;;;6.06;100.00;101389.31;5687698;26;20598;-75
2024/04/18 00:18:18;;;;;;;3.13;2.60;;;;;;;6.05;100.00;101392.81;5687107;26;20002;-75
2024/04/18 00:20:50;;;;;;;3.13;2.83;;;;;;;5.98;100.00;101382.84;5688784;26;20484;-76
2024/04/18 00:23:22;;;;;;;3.20;2.90;;;;;;;6.03;100.00;101389.50;5679736;26;20039;-75
2024/04/18 00:25:54;;;;;;;3.78;2.90;;;;;;;6.03;100.00;101392.09;5655662;26;20364;-75
2024/04/18 00:28:26;;;;;;;5.18;3.13;;;;;;;6.03;100.00;101399.88;5678255;26;20026;-75
2024/04/18 00:30:58;;;;;;;4.65;3.25;;;;;;;6.02;100.00;101402.56;5685289;26;20118;-77
2024/04/18 00:33:29;;;;;;;7.63;3.40;;;;;;;6.03;100.00;101406.88;5689494;26;20014;-76
2024/04/18 00:36:01;;;;;;;4.00;3.10;;;;;;;6.04;100.00;101409.38;5691262;26;20017;-76
2024/04/18 00:38:33;;;;;;;5.30;2.75;;;;;;;6.02;100.00;101397.34;5687254;26;20002;-76
2024/04/18 00:41:07;;;;;;;4.30;3.25;;;;;;;6.02;100.00;101403.44;5686456;26;20010;-75
2024/04/18 00:43:38;;;;;;;3.33;2.83;;;;;;;6.07;100.00;101409.19;5686666;26;20041;-78
2024/04/18 00:46:11;;;;;;;4.25;3.08;;;;;;;6.12;100.00;101423.69;5687703;26;20632;-74
2024/04/18 00:48:43;;;;;;;4.82;3.45;;;;;;;6.16;100.00;101414.78;5684426;26;20012;-75
2024/04/18 00:51:15;;;;;;;3.83;3.28;;;;;;;6.12;100.00;101415.91;5652713;26;20041;-75
2024/04/18 00:53:47;;;;;;;4.40;3.03;;;;;;;6.15;100.00;101423.53;5689869;26;20030;-77
2024/04/18 00:56:19;;;;;;;4.25;3.38;;;;;;;6.16;100.00;101423.44;5654958;26;20395;-75
2024/04/18 00:58:52;;;;;;;4.93;3.70;;;;;;;6.18;100.00;101424.19;5682438;26;20042;-75
2024/04/18 01:01:25;;;;;;;3.53;3.22;;;;;;;6.19;100.00;101427.63;5683302;26;20208;-77
2024/04/18 01:03:57;;;;;;;4.78;3.63;;;;;;;6.15;100.00;101426.13;5687426;26;20055;-77
2024/04/18 01:06:29;;;;;;;4.05;3.65;;;;;;;6.18;100.00;101423.38;5689902;26;20059;-75
2024/04/18 01:09:03;;;;;;;4.70;3.63;;;;;;;6.10;100.00;101416.00;5655661;26;20018;-74
2024/04/18 01:11:34;;;;;;;;;;;;;;;6.85;100.00;101431.59;5686652;26;20046;-75
2024/04/18 01:14:08;;;;;;;3.50;3.20;;;;;;;6.29;100.00;101429.63;5684218;26;19924;-75
2024/04/18 01:16:40;;;;;;;5.13;3.80;;;;;;;6.23;100.00;101419.56;5694664;26;20022;-74
2024/04/18 01:19:17;;;;;;;4.40;3.65;;;;;;;6.36;100.00;101437.91;5689034;26;20017;-76
2024/04/18 01:21:49;;;;;;;4.28;3.67;;;;;;;6.19;100.00;101431.06;5684491;26;20030;-75
2024/04/18 01:24:21;;;;;;;4.20;3.80;;;;;;;6.27;100.00;101436.66;5682759;26;20854;-75
2024/04/18 01:26:53;;;;;;;4.30;3.60;;;;;;;6.28;100.00;101440.94;5681202;26;20023;-75
2024/04/18 01:29:26;;;;;;;4.65;3.65;;;;;;;6.37;100.00;101450.00;5682907;26;20014;-76
2024/04/18 01:31:58;;;;;;;4.57;4.18;;;;;;;6.38;100.00;101443.88;5687019;26;20062;-79
2024/04/18 01:34:30;;;;;;;4.82;3.72;;;;;;;6.42;100.00;101453.16;5659451;26;20006;-76
2024/04/18 01:37:02;;;;;;;4.60;4.10;;;;;;;6.44;100.00;101459.13;5689267;26;20013;-77
2024/04/18 01:39:34;;;;;;;4.85;3.85;;;;;;;6.46;100.00;101459.88;5684750;26;20003;-79
2024/04/18 01:42:07;;;;;;;4.47;3.95;;;;;;;6.47;100.00;101461.53;5687995;26;20035;-76
2024/04/18 01:44:39;;;;;;;4.13;3.65;;;;;;;6.43;100.00;101459.22;5688610;26;20106;-77
2024/04/18 01:47:11;;;;;;;4.68;3.88;;;;;;;6.47;100.00;101460.72;5681362;26;20083;-77
2024/04/18 01:49:43;;;;;;;4.35;3.88;;;;;;;6.44;100.00;101453.94;5683427;26;20006;-77
2024/04/18 01:52:15;;;;;;;5.22;4.10;;;;;;;6.55;100.00;101471.50;5672672;26;20017;-77
2024/04/18 01:54:47;;;;;;;6.20;3.60;;;;;;;6.62;100.00;101469.41;5685394;26;19998;-79
2024/04/18 01:57:19;;;;;;;4.88;4.28;;;;;;;6.63;100.00;101469.31;5682516;26;20043;-76
2024/04/18 01:59:51;;;;;;;5.15;3.92;;;;;;;6.64;100.00;101470.16;5688838;26;20281;-78
2024/04/18 02:02:26;;;;;;;5.55;4.35;;;;;;;6.75;100.00;101480.78;5653949;26;20006;-75
2024/04/18 02:04:58;;;;;;;4.80;4.13;;;;;;;6.68;100.00;101480.31;5678633;26;20026;-77
2024/04/18 02:07:30;;;;;;;4.80;4.35;;;;;;;6.42;100.00;101437.56;5688382;26;20712;-78
2024/04/18 02:10:02;;;;;;;4.50;3.72;;;;;;;6.68;100.00;101482.06;5689015;26;20355;-78
2024/04/18 02:12:33;;;;;;;4.90;4.13;;;;;;;6.71;100.00;101484.50;5679996;26;20051;-77
2024/04/18 02:15:06;;;;;;;5.55;4.07;;;;;;;6.51;100.00;101463.03;5679958;26;19998;-76
2024/04/18 02:17:38;;;;;;;5.68;4.07;;;;;;;6.71;100.00;101484.50;5683670;26;20016;-76
2024/04/18 02:20:09;;;;;;;4.78;4.00;;;;;;;6.65;100.00;101485.69;5682273;26;19999;-75
2024/04/18 02:22:41;;;;;;;5.72;4.53;;;;;;;6.65;100.00;101490.06;5686707;26;20340;-76
2024/04/18 02:25:13;;;;;;;5.50;4.90;;;;;;;6.63;100.00;101495.38;5689598;26;20017;-76
2024/04/18 02:27:45;;;;;;;5.57;4.45;;;;;;;6.67;100.00;101499.47;5692910;26;20027;-75
2024/04/18 02:30:17;;;;;;;5.25;4.75;;;;;;;6.66;100.00;101502.13;5685638;26;20017;-76
2024/04/18 02:32:49;;;;;;;4.80;4.40;;;;;;;6.64;100.00;101499.63;5693447;26;20022;-75
2024/04/18 02:35:21;;;;;;;5.32;4.82;;;;;;;6.74;100.00;101511.19;5687399;26;20009;-76
2024/04/18 02:37:53;;;;;;;5.20;4.70;;;;;;;6.72;100.00;101509.59;5688473;26;19998;-75
2024/04/18 02:40:25;;;;;;;4.57;4.18;;;;;;;6.70;100.00;101511.44;5652424;26;20009;-75
2024/04/18 02:42:57;;;;;;;4.97;4.47;;;;;;;6.68;100.00;101510.72;5656672;26;20044;-74
2024/04/18 02:45:29;;;;;;;5.75;4.72;;;;;;;6.69;100.00;101513.22;5688430;26;20014;-75
2024/04/18 02:48:00;;;;;;;5.78;4.43;;;;;;;6.65;100.00;101511.72;5656842;26;20017;-74
2024/04/18 02:50:32;;;;;;;5.25;4.75;;;;;;;6.63;100.00;101524.00;5687752;26;20026;-76
2024/04/18 02:53:04;;;;;;;4.47;4.07;;;;;;;6.57;100.00;101519.97;5690550;26;20006;-76
2024/04/18 02:55:36;;;;;;;4.80;4.10;;;;;;;6.53;100.00;101517.63;5691035;26;19995;-76
2024/04/18 02:58:08;;;;;;;6.90;4.18;;;;;;;6.46;100.00;101517.13;5687983;26;20058;-76
2024/04/18 03:00:40;;;;;;;4.85;4.13;;;;;;;6.47;100.00;101528.38;5688396;26;20020;-76
2024/04/18 03:03:12;;;;;;;4.13;3.72;;;;;;;6.38;100.00;101524.53;5687789;26;20347;-76
2024/04/18 03:05:44;;;;;;;4.93;3.80;;;;;;;6.34;100.00;101528.25;5692483;26;20013;-75
2024/04/18 03:08:16;;;;;;;6.20;3.78;;;;;;;6.34;100.00;101543.84;5686695;26;20002;-76
2024/04/18 03:10:49;;;;;;;4.88;3.90;;;;;;;6.26;100.00;101536.47;5689243;26;20680;-75
2024/04/18 03:13:20;;;;;;;4.03;3.63;;;;;;;6.30;100.00;101544.97;5659736;26;20027;-75
2024/04/18 03:15:52;;;;;;;4.90;3.97;;;;;;;6.24;100.00;101548.72;5659961;26;20002;-76
2024/04/18 03:18:24;;;;;;;4.60;3.95;;;;;;;6.21;100.00;101551.53;5687242;26;20903;-76
2024/04/18 03:20:56;;;;;;;4.00;3.60;;;;;;;6.14;100.00;101555.38;5686574;26;20010;-76
2024/04/18 03:23:28;;;;;;;4.03;3.60;;;;;;;6.15;100.00;101554.44;5688066;26;20008;-75
2024/04/18 03:26:00;;;;;;;4.00;3.60;;;;;;;6.06;100.00;101550.59;5691227;26;19999;-76
2024/04/18 03:28:32;;;;;;;3.92;3.53;;;;;;;6.02;100.00;101540.41;5658822;26;20011;-74
2024/04/18 03:31:04;;;;;;;4.13;3.72;;;;;;;6.03;100.00;101552.53;5690975;26;20006;-75
2024/04/18 03:33:36;;;;;;;4.32;3.72;;;;;;;5.96;100.00;101554.59;5690532;26;20031;-76
2024/04/18 03:36:08;;;;;;;3.90;3.50;;;;;;;5.97;100.00;101556.28;5689494;26;20013;-76
2024/04/18 03:38:40;;;;;;;4.30;3.40;;;;;;;5.99;100.00;101554.44;5687226;26;20017;-76
2024/04/18 03:41:12;;;;;;;4.70;3.50;;;;;;;5.99;100.00;101562.25;5691123;26;20484;-75
2024/04/18 03:43:44;;;;;;;3.88;3.45;;;;;;;5.93;100.00;101567.78;5691501;26;20003;-76
2024/04/18 03:46:16;;;;;;;4.40;3.53;;;;;;;5.92;100.00;101567.84;5687153;26;20066;-75
2024/04/18 03:48:48;;;;;;;4.07;3.70;;;;;;;5.87;100.00;101573.25;5689863;26;20555;-76
2024/04/18 03:51:21;;;;;;;3.97;3.58;;;;;;;5.90;100.00;101577.47;5689473;26;20002;-75
2024/04/18 03:53:53;;;;;;;;;;;;;;;6.55;100.00;101589.53;5694625;26;20030;-74
2024/04/18 03:56:25;;;;;;;4.07;3.50;;;;;;;5.88;100.00;101582.75;5688909;26;19936;-76
2024/04/18 03:58:57;;;;;;;4.30;3.10;;;;;;;5.85;100.00;101593.31;5689518;26;20475;-75
2024/04/18 04:01:29;;;;;;;3.78;3.38;;;;;;;5.72;100.00;101576.66;5693341;26;20025;-75
2024/04/18 04:04:01;;;;;;;3.50;3.15;;;;;;;5.76;100.00;101592.06;5690203;26;19999;-74
2024/04/18 04:06:33;;;;;;;3.50;3.20;;;;;;;5.71;100.00;101588.00;5687554;26;20013;-76
2024/04/18 04:09:05;;;;;;;4.32;3.35;;;;;;;5.59;100.00;101592.91;5688594;26;20029;-74
2024/04/18 04:11:37;;;;;;;3.85;3.30;;;;;;;5.63;100.00;101596.19;5695036;26;21462;-75
2024/04/18 04:14:11;;;;;;;3.80;3.40;;;;;;;5.63;100.00;101608.34;5687139;26;20002;-75
2024/04/18 04:16:42;;;;;;;3.10;2.80;;;;;;;5.54;100.00;101599.28;5691031;26;20035;-75
2024/04/18 04:19:14;;;;;;;3.78;3.33;;;;;;;5.52;100.00;101607.16;5655664;26;20379;-76
2024/04/18 04:21:46;;;;;;;3.67;3.00;;;;;;;5.51;100.00;101609.84;5689750;26;19998;-75
2024/04/18 04:24:18;;;;;;;4.28;3.38;;;;;;;5.54;100.00;101620.09;5687166;26;20022;-74
2024/04/18 04:26:51;;;;;;;3.28;2.97;;;;;;;5.41;100.00;101619.00;5684205;26;20006;-74
2024/04/18 04:29:23;;;;;;;4.80;3.30;;;;;;;5.40;100.00;101620.78;5687262;26;20503;-76
2024/04/18 04:31:55;;;;;;;3.08;2.65;;;;;;;5.44;100.00;101639.66;5681884;26;20006;-74
2024/04/18 04:34:26;;;;;;;3.22;2.92;;;;;;;5.33;100.00;101629.78;5634987;26;20087;-76
2024/04/18 04:36:58;;;;;;;3.72;2.92;;;;;;;5.45;100.00;101646.53;5691613;26;20002;-74
2024/04/18 04:39:30;;;;;;;3.35;2.92;;;;;;;5.39;100.00;101647.69;5683163;26;20055;-76
2024/04/18 04:42:02;;;;;;;3.05;2.75;;;;;;;5.39;100.00;101647.69;5641115;26;20013;-75
2024/04/18 04:44:34;;;;;;;3.88;3.13;;;;;;;5.29;100.00;101649.06;5684794;26;20042;-76
2024/04/18 04:47:09;;;;;;;3.20;2.83;;;;;;;5.25;100.00;101643.16;5684762;26;19998;-77
2024/04/18 04:49:41;;;;;;;3.38;2.95;;;;;;;5.26;100.00;101646.59;5682028;26;20034;-76
2024/04/18 04:52:13;;;;;;;4.72;3.20;;;;;;;5.33;100.00;101659.22;5685810;26;20002;-75
2024/04/18 04:54:46;;;;;;;4.95;3.10;;;;;;;5.33;100.00;101671.38;5677544;26;20006;-77
2024/04/18 04:57:18;;;;;;;3.55;2.67;;;;;;;5.32;100.00;101672.28;5683018;26;20377;-75
2024/04/18 04:59:50;;;;;;;3.70;3.03;;;;;;;5.33;100.00;101679.16;5689183;26;19994;-74
2024/04/18 05:02:22;;;;;;;3.30;2.80;;;;;;;5.25;100.00;101666.53;5622883;26;20039;-77
2024/04/18 05:04:54;;;;;;;5.45;3.20;;;;;;;5.24;100.00;101672.66;5692986;26;20002;-78
2024/04/18 05:07:26;;;;;;;4.25;2.75;;;;;;;5.39;100.00;101691.84;5653274;26;19999;-75
2024/04/18 05:09:58;;;;;;;4.47;2.90;;;;;;;5.30;100.00;101680.16;5683367;26;20018;-74
2024/04/18 05:12:29;;;;;;;4.63;3.70;;;;;;;5.42;100.00;101699.50;5683867;26;20003;-75
2024/04/18 05:15:01;;;;;;;4.50;3.53;;;;;;;5.40;100.00;101690.94;5678869;26;20006;-75
2024/04/18 05:17:33;;;;;;;4.35;3.40;;;;;;;5.28;100.00;101679.38;5683907;26;19998;-78
2024/04/18 05:20:07;;;;;;;3.70;3.15;;;;;;;5.18;100.00;101661.72;5683944;26;19998;-74
2024/04/18 05:22:39;;;;;;;4.18;3.28;;;;;;;5.39;100.00;101689.25;5682926;26;20031;-74
2024/04/18 05:25:11;;;;;;;6.10;3.58;;;;;;;5.49;100.00;101703.50;5690937;26;19998;-76
2024/04/18 05:27:44;;;;;;;4.10;3.65;;;;;;;5.52;100.00;101711.09;5693129;26;19998;-75
2024/04/18 05:33:06;;;;;;;4.57;3.63;;;;;;;5.65;100.00;101718.31;5689765;26;20794;-75
2024/04/18 05:35:38;;;;;;;4.90;3.72;;;;;;;5.66;100.00;101722.59;5694568;26;20020;-76
2024/04/18 05:38:10;;;;;;;6.07;4.32;;;;;;;5.67;100.00;101714.69;5647968;26;20027;-77
2024/04/18 05:40:43;;;;;;;5.55;4.10;;;;;;;5.76;100.00;101734.22;5669002;26;20014;-77
2024/04/18 05:43:16;;;;;;;4.57;3.90;;;;;;;5.74;100.00;101717.84;5684519;26;20029;-74
2024/04/18 05:45:49;;;;;;;4.63;3.85;;;;;;;5.74;100.00;101726.47;5694733;26;20046;-75
2024/04/18 05:48:21;;;;;;;5.50;4.10;;;;;;;5.83;100.00;101732.97;5689279;26;20023;-76
2024/04/18 05:50:53;;;;;;;4.57;4.18;;;;;;;5.92;100.00;101736.88;5691641;26;20014;-78
2024/04/18 05:53:25;;;;;;;6.65;4.47;;;;;;;5.94;100.00;101740.25;5685158;26;20041;-77
2024/04/18 05:55:57;;;;;;;4.88;4.22;;;;;;;5.88;100.00;101731.00;5689466;26;20006;-76
2024/04/18 05:58:29;;;;;;;5.55;4.43;;;;;;;6.01;100.00;101739.88;5693638;26;20012;-75
2024/04/18 06:01:01;;;;;;;7.63;3.88;;;;;;;6.03;100.00;101740.66;5689969;26;20007;-75
2024/04/18 06:03:32;;;;;;;6.25;4.85;;;;;;;6.11;100.00;101755.03;5689122;26;20838;-75
2024/04/18 06:06:05;;;;;;;6.85;4.38;;;;;;;6.17;100.00;101762.50;5691845;26;20006;-78
2024/04/18 06:08:36;;;;;;;6.78;4.78;;;;;;;6.21;100.00;101756.19;5661811;26;20065;-77
2024/04/18 06:11:08;;;;;;;6.10;4.95;;;;;;;6.30;100.00;101760.94;5689104;26;20033;-78
2024/04/18 06:13:40;;;;;;;5.47;4.82;;;;;;;6.34;100.00;101770.28;5698112;26;20005;-75
2024/04/18 06:16:12;;;;;;;6.05;5.40;;;;;;;6.38;100.00;101764.00;5678290;26;20422;-77
2024/04/18 06:18:44;;;;;;;8.25;6.20;;;;;;;6.42;100.00;101772.47;5686913;26;21361;-76
2024/04/18 06:21:16;;;;;;;7.65;6.05;;;;;;;6.50;100.00;101785.94;5688543;26;20007;-75
2024/04/18 06:23:48;;;;;;;8.15;5.55;;;;;;;6.55;100.00;101795.19;5691320;26;20006;-76
2024/04/18 06:26:21;;;;;;;7.75;5.88;;;;;;;6.61;100.00;101798.38;5694739;26;20006;-76
2024/04/18 06:28:53;;;;;;;6.50;5.72;;;;;;;6.70;100.00;101798.72;5692153;26;20033;-76
2024/04/18 06:31:25;;;;;;;8.25;6.60;;;;;;;6.71;100.00;101792.63;5695811;26;20070;-77
2024/04/18 06:33:57;;;;;;;6.97;6.28;;;;;;;6.78;100.00;101799.19;5652415;26;20009;-79
2024/04/18 06:36:29;;;;;;;7.35;6.32;;;;;;;6.93;100.00;101805.31;5681445;26;20038;-77
2024/04/18 06:39:01;;;;;;;7.55;6.47;;;;;;;7.09;100.00;101809.72;5690725;26;19998;-76
2024/04/18 06:41:34;;;;;;;7.55;6.50;;;;;;;7.17;100.00;101804.91;5649747;26;20026;-76
2024/04/18 06:44:07;;;;;;;7.68;6.05;;;;;;;7.29;100.00;101817.25;5672080;26;20013;-75
2024/04/18 06:46:39;;;;;;;8.45;6.32;;;;;;;7.40;100.00;101814.88;5663386;26;20374;-75
2024/04/18 06:49:11;;;;;;;7.03;6.07;;;;;;;7.37;100.00;101798.56;5683540;26;20006;-79
2024/04/18 06:51:42;;;;;;;7.38;6.00;;;;;;;7.57;100.00;101816.53;5652944;26;20011;-75
2024/04/18 06:54:14;;;;;;;8.93;6.07;;;;;;;7.73;100.00;101821.75;5641195;26;20072;-78
2024/04/18 06:56:46;;;;;;;7.43;5.78;;;;;;;7.63;100.00;101784.06;5693651;26;20003;-78
2024/04/18 06:59:19;;;;;;;6.55;5.93;;;;;;;7.86;100.00;101819.25;5691721;26;20021;-79
2024/04/18 07:01:51;;;;;;;7.05;6.20;;;;;;;7.99;100.00;101820.22;5691592;26;20008;-75
2024/04/18 07:04:23;;;;;;;6.82;5.05;;;;;;;8.09;100.00;101825.75;5691533;26;20006;-75
2024/04/18 07:06:56;;;;;;;7.85;5.93;;;;;;;8.22;100.00;101821.47;5693285;26;20006;-77
2024/04/18 07:09:28;;;;;;;8.30;5.63;;;;;;;8.35;100.00;101826.81;5691223;26;20038;-76
2024/04/18 07:12:00;;;;;;;5.75;4.93;;;;;;;8.39;100.00;101833.56;5693195;26;20017;-77
2024/04/18 07:14:32;;;;;;;6.43;4.90;;;;;;;8.45;100.00;101836.66;5693585;26;20030;-76
2024/04/18 07:17:04;;;;;;;6.88;4.80;;;;;;;8.53;100.00;101837.03;5694170;26;20038;-77
2024/04/18 07:19:36;;;;;;;7.10;4.88;;;;;;;8.57;100.00;101824.63;5692245;26;20038;-76
2024/04/18 07:22:08;;;;;;;8.02;4.00;;;;;;;8.74;100.00;101840.09;5692587;26;19998;-75
2024/04/18 07:24:44;;;;;;;5.95;4.03;;;;;;;8.75;100.00;101844.41;5689935;26;20041;-78
2024/04/18 07:27:16;;;;;;;5.78;4.22;;;;;;;8.87;100.00;101840.22;5686082;26;20039;-76
2024/04/18 07:29:48;;;;;;;5.63;4.25;;;;;;;9.00;100.00;101850.72;5693551;26;20038;-76
2024/04/18 07:32:19;;;;;;;5.72;3.72;;;;;;;9.01;100.00;101853.25;5694354;26;20063;-78
2024/04/18 07:34:51;;;;;;;5.70;4.22;;;;;;;9.10;100.00;101843.16;5697124;26;19999;-76
2024/04/18 07:37:24;;;;;;;6.38;3.92;;;;;;;9.23;100.00;101852.75;5698927;26;20074;-76
2024/04/18 07:40:00;;;;;;;6.22;3.83;;;;;;;9.35;100.00;101856.34;5661945;26;20026;-76
2024/04/18 07:42:32;;;;;;;8.45;4.18;;;;;;;9.36;100.00;101842.38;5690058;26;20001;-76
2024/04/18 07:45:05;;;;;;;6.82;3.55;;;;;;;9.46;100.00;101855.69;5695607;26;20312;-78
2024/04/18 07:47:43;;;;;;;5.07;3.30;;;;;;;9.56;100.00;101838.47;5686899;26;20034;-76
2024/04/18 07:50:15;;;;;;;10.75;3.67;;;;;;;9.65;100.00;101863.19;5638669;26;20495;-77
2024/04/18 07:52:47;;;;;;;5.45;3.20;;;;;;;9.66;100.00;101846.53;5696103;26;20032;-76
2024/04/18 07:55:19;;;;;;;5.18;2.92;;;;;;;9.75;100.00;101857.25;5698260;26;19998;-77
2024/04/18 07:57:51;;;;;;;5.10;3.33;;;;;;;9.85;100.00;101859.25;5662620;26;20083;-76
2024/04/18 08:00:23;;;;;;;7.22;3.20;;;;;;;10.02;100.00;101861.63;5696985;26;20030;-77
2024/04/18 08:02:55;;;;;;;6.30;3.30;;;;;;;10.14;100.00;101857.34;5700298;26;20017;-76
2024/04/18 08:05:28;;;;;;;6.40;3.03;;;;;;;10.27;100.00;101863.50;5696731;26;20054;-77
2024/04/18 08:07:59;;;;;;;5.20;2.53;;;;;;;10.39;100.00;101865.28;5692075;26;20038;-75
2024/04/18 08:10:31;;;;;;;4.13;2.58;;;;;;;10.47;100.00;101876.06;5697186;26;19998;-77
2024/04/18 08:13:03;;;;;;;7.25;3.10;;;;;;;10.50;100.00;101866.34;5689324;26;20021;-76
2024/04/18 08:15:43;;;;;;;5.78;2.90;;;;;;;10.75;100.00;101868.94;5696934;26;20017;-77
2024/04/18 08:18:19;;;;;;;4.22;2.67;;;;;;;10.72;100.00;101879.66;5691279;26;20460;-76
2024/04/18 08:20:51;;;;;;;4.97;2.45;;;;;;;10.75;100.00;101884.66;5696488;26;20041;-77
2024/04/18 08:23:23;;;;;;;5.97;2.28;;;;;;;10.80;100.00;101890.44;5696341;26;20006;-77
2024/04/18 08:25:55;;;;;;;5.22;2.58;;;;;;;10.81;100.00;101886.03;5694372;26;20496;-77
2024/04/18 08:28:26;;;;;;;4.68;2.40;;;;;;;10.89;100.00;101897.66;5691296;26;20025;-77
2024/04/18 08:30:58;;;;;;;3.83;2.35;;;;;;;10.93;100.00;101893.88;5695685;26;20058;-77
2024/04/18 08:33:30;;;;;;;3.63;1.90;;;;;;;11.06;100.00;101906.13;5694407;26;20013;-77
2024/04/18 08:36:02;;;;;;;5.10;2.30;;;;;;;11.21;100.00;101897.16;5693177;26;20061;-77
2024/04/18 08:38:34;;;;;;;3.83;2.03;;;;;;;11.22;100.00;101898.88;5690192;26;20003;-77
2024/04/18 08:41:12;;;;;;;7.05;2.78;;;;;;;11.44;100.00;101888.53;5697799;26;20021;-76
2024/04/18 08:43:47;;;;;;;5.05;2.20;;;;;;;11.51;100.00;101902.03;5689276;26;20050;-76
2024/04/18 08:46:20;;;;;;;3.25;1.77;;;;;;;11.49;96.81;101896.06;5668839;26;20002;-78
2024/04/18 08:48:52;;;;;;;;;;;;;;;12.36;100.00;101900.16;5683967;26;20006;-77
2024/04/18 08:51:24;;;;;;;3.70;1.55;;;;;;;11.78;93.80;101909.72;5695456;26;19938;-77
2024/04/18 08:53:56;;;;;;;5.65;1.75;;;;;;;11.68;100.00;101904.28;5697024;26;20046;-77
2024/04/18 08:56:32;;;;;;;4.60;1.60;;;;;;;11.71;89.95;101916.34;5694129;26;20034;-77
2024/04/18 08:59:06;;;;;;;4.35;1.50;;;;;;;11.58;93.54;101913.75;5695527;26;20035;-78
2024/04/18 09:01:38;;;;;;;5.85;1.50;;;;;;;11.54;88.96;101901.81;5643148;26;20054;-78
2024/04/18 09:04:10;;;;;;;3.05;1.70;;;;;;;11.59;90.29;101920.72;5693882;26;20006;-77
2024/04/18 09:06:41;;;;;;;4.20;1.20;;;;;;;11.48;87.97;101901.41;5699038;26;20034;-76
2024/04/18 09:09:16;;;;;;;5.13;1.30;;;;;;;11.45;88.04;101916.44;5695768;26;20002;-77
2024/04/18 09:11:48;;;;;;;3.33;1.23;;;;;;;11.58;90.75;101933.91;5693401;26;20030;-77
2024/04/18 09:14:20;;;;;;;4.25;1.50;;;;;;;11.54;95.43;101921.97;5697569;26;20013;-77
2024/04/18 09:16:52;;;;;;;2.58;1.20;;;;;;;11.60;98.23;101917.13;5688364;26;20032;-77
2024/04/18 09:19:24;;;;;;;4.18;1.35;;;;;;;11.63;88.03;101923.91;5652775;26;20338;-77
2024/04/18 09:21:59;;;;;;;5.57;1.30;;;;;;;12.03;97.22;101934.19;5694191;26;20020;-77
2024/04/18 09:24:31;;;;;;;3.08;1.30;;;;;;;11.96;80.60;101927.72;5695533;26;20030;-77
2024/04/18 09:27:03;;;;;;;4.93;1.20;;;;;;;11.98;93.40;101925.81;5690294;26;20012;-77
2024/04/18 09:29:35;;;;;;;2.25;1.10;;;;;;;11.87;74.79;101924.81;5693401;26;20120;-75
2024/04/18 09:32:08;;;;;;;2.30;1.10;;;;;;;11.88;88.08;101930.91;5693813;26;20054;-76
2024/04/18 09:34:42;;;;;;;2.78;1.25;;;;;;;11.99;84.33;101943.25;5689901;26;20488;-77
2024/04/18 09:37:15;;;;;;;2.63;1.20;;;;;;;11.79;77.69;101936.81;5666234;26;20046;-77
2024/04/18 09:39:51;;;;;;;2.42;1.00;;;;;;;11.73;76.56;101950.34;5698515;26;20405;-77
2024/04/18 09:42:47;;;;;;;2.00;0.80;;;;;;;12.08;77.68;101958.31;5692484;26;20034;-77
2024/04/18 09:45:20;;;;;;;3.15;1.08;;;;;;;11.74;78.59;101942.38;5653418;26;20030;-77
2024/04/18 09:47:52;;;;;;;2.33;0.98;;;;;;;11.92;86.23;101927.94;5692145;26;20034;-78
2024/04/18 09:50:26;;;;;;;2.57;1.00;;;;;;;12.21;82.13;101942.50;5659783;26;20026;-76
2024/04/18 09:52:59;;;;;;;3.00;0.90;;;;;;;12.49;80.13;101946.53;5692509;26;20465;-76
2024/04/18 09:55:32;;;;;;;2.53;1.00;;;;;;;12.77;84.29;101940.03;5665652;26;20046;-76
2024/04/18 09:58:05;;;;;;;1.98;1.00;;;;;;;12.83;70.22;101945.63;5691607;26;20046;-78
2024/04/18 10:00:38;;;;;;;1.98;1.00;;;;;;;12.71;74.56;101937.88;5697400;26;20026;-77
2024/04/18 10:03:11;;;;;;;3.53;0.90;;;;;;;12.77;74.35;101943.50;5664318;26;20567;-76
2024/04/18 10:05:48;;;;;;;;;;;;;;;13.52;76.46;101939.44;5696754;26;20724;-79
2024/04/18 10:08:24;;;;;;;2.78;1.05;;;;;;;12.69;69.47;101942.38;5662734;26;19956;-76
2024/04/18 10:10:57;;;;;;;1.98;0.95;;;;;;;12.45;70.48;101930.16;5698799;26;20026;-77
2024/04/18 10:13:29;;;;;;;1.83;1.00;;;;;;;12.50;69.80;101935.06;5698488;26;21566;-76
2024/04/18 10:16:22;;;;;;;1.60;0.65;;;;;;;12.74;76.25;101929.75;5697451;26;20017;-79
2024/04/18 10:18:54;;;;;;;1.88;0.93;;;;;;;12.60;70.06;101939.50;5691522;26;20046;-76
2024/04/18 10:21:26;;;;;;;3.35;0.90;;;;;;;12.83;71.32;101932.50;5701646;26;20046;-79
2024/04/18 10:24:02;;;;;;;2.33;0.82;;;;;;;13.19;72.88;101927.97;5700623;26;19994;-77
2024/04/18 10:26:35;;;;;;;2.25;0.98;;;;;;;13.33;63.70;101927.75;5665320;26;20046;-77
2024/04/18 10:29:22;;;;;;;1.70;0.70;;;;;;;13.73;64.49;101919.28;5662291;26;20042;-78
2024/04/18 10:31:54;;;;;;;3.28;1.00;;;;;;;13.60;66.99;101929.97;5695954;26;20437;-78
2024/04/18 10:34:26;;;;;;;2.25;1.00;;;;;;;13.48;66.53;101924.84;5664438;26;20057;-78
2024/04/18 10:37:08;;;;;;;2.33;0.90;;;;;;;13.51;63.81;101937.75;5694474;26;20014;-77
2024/04/18 10:39:40;;;;;;;2.05;1.00;;;;;;;13.30;60.93;101940.31;5696416;26;20030;-78
2024/04/18 10:42:14;;;;;;;1.60;1.00;;;;;;;13.33;63.65;101938.28;5697139;26;20043;-77
2024/04/18 10:44:47;;;;;;;2.20;1.00;;;;;;;13.51;65.13;101930.69;5664035;26;20463;-77
2024/04/18 10:47:19;;;;;;;;;;;;;;;14.50;68.39;101939.34;5703110;26;20026;-78
2024/04/18 10:49:51;;;;;;;2.63;1.00;;;;;;;13.78;58.83;101937.34;5653324;26;19931;-77
2024/04/18 10:52:23;;;;;;;1.80;0.80;;;;;;;13.70;60.37;101934.50;5688943;26;20001;-78
2024/04/18 10:54:55;;;;;;;2.75;1.20;;;;;;;13.59;61.59;101933.56;5689052;26;20339;-78
2024/04/18 10:57:27;;;;;;;3.25;0.82;;;;;;;13.49;60.11;101944.97;5629088;26;20008;-78
2024/04/18 10:59:59;;;;;;;3.90;1.10;;;;;;;13.44;61.30;101955.84;5619631;26;20018;-78
2024/04/18 11:02:31;;;;;;;2.72;0.82;;;;;;;13.44;59.41;101949.75;5623533;26;19999;-78
2024/04/18 11:05:03;;;;;;;3.30;0.90;;;;;;;13.31;59.58;101953.34;5625052;26;20010;-78
2024/04/18 11:07:35;;;;;;;1.70;0.70;;;;;;;13.28;57.79;101945.69;5616403;26;20048;-77
2024/04/18 11:10:07;;;;;;;1.75;0.77;;;;;;;13.39;60.40;101950.09;5619954;26;20008;-78
2024/04/18 11:12:39;;;;;;;2.03;0.80;;;;;;;13.51;63.01;101946.50;5619436;26;20014;-78
2024/04/18 11:15:15;;;;;;;2.87;1.10;;;;;;;13.93;57.72;101945.81;5615225;26;20027;-76
2024/04/18 11:17:47;;;;;;;2.22;0.85;;;;;;;13.87;57.04;101947.16;5611619;26;20040;-78
2024/04/18 11:20:19;;;;;;;1.63;0.88;;;;;;;13.82;56.13;101949.31;5615517;26;20014;-78
2024/04/18 11:22:53;;;;;;;1.95;0.85;;;;;;;13.73;58.99;101956.16;5623000;26;20356;-78
2024/04/18 11:25:26;;;;;;;1.77;0.73;;;;;;;13.56;57.40;101947.00;5616404;26;20047;-82
2024/04/18 11:27:58;;;;;;;2.00;0.90;;;;;;;13.51;58.87;101940.41;5620096;26;20035;-82
2024/04/18 11:30:30;;;;;;;3.45;1.00;;;;;;;13.43;61.99;101945.44;5614210;26;20018;-77
2024/04/18 11:33:02;;;;;;;3.03;0.90;;;;;;;13.59;65.23;101943.25;5627016;26;20035;-79
2024/04/18 11:35:34;;;;;;;1.83;1.10;;;;;;;13.54;60.10;101929.63;5613825;26;21316;-76
2024/04/18 11:38:08;;;;;;;3.63;0.90;;;;;;;13.56;58.56;101939.09;5622568;26;20011;-77
2024/04/18 11:40:40;;;;;;;2.60;0.95;;;;;;;13.45;59.76;101943.50;5617390;26;20020;-76
2024/04/18 11:43:12;;;;;;;2.30;0.98;;;;;;;13.40;63.32;101949.16;5616607;26;20007;-79
2024/04/18 11:45:44;;;;;;;3.05;0.75;;;;;;;13.60;65.81;101951.03;5619332;26;20004;-78
2024/04/18 11:48:16;;;;;;;2.38;1.05;;;;;;;13.84;61.33;101931.59;5618666;26;20023;-77
2024/04/18 11:50:48;;;;;;;2.53;1.00;;;;;;;14.09;56.78;101926.00;5619730;26;20165;-82
2024/04/18 11:53:20;;;;;;;2.17;0.95;;;;;;;14.29;54.40;101928.78;5621830;26;20782;-79